sensor_id;sensor_type;location;lat;lon;timestamp;pressure;altitude;pressure_sealevel;temperature;humidity
12757;BME280;31601;48.042;12.240;2023-06-22T00:02:00;96322.09;;;21.78;62.74
12757;BME280;31601;48.042;12.240;2023-06-22T00:04:26;96299.91;;;21.78;62.69
12757;BME280;31601;48.042;12.240;2023-06-22T00:06:53;96288.13;;;21.74;62.62
12757;BME280;31601;48.042;12.240;2023-06-22T00:09:19;96280.56;;;21.66;62.60
12757;BME280;31601;48.042;12.240;2023-06-22T00:11:46;96276.75;;;21.56;62.82
12757;BME280;31601;48.042;12.240;2023-06-22T00:14:13;96291.81;;;21.68;62.35
12757;BME280;31601;48.042;12.240;2023-06-22T00:16:40;96289.25;;;21.51;62.99
12757;BME280;31601;48.042;12.240;2023-06-22T00:19:08;96276.81;;;21.61;62.31
12757;BME280;31601;48.042;12.240;2023-06-22T00:21:37;96272.56;;;21.38;63.66
12757;BME280;31601;48.042;12.240;2023-06-22T00:24:04;96266.97;;;21.40;63.86
12757;BME280;31601;48.042;12.240;2023-06-22T00:26:31;96258.28;;;21.50;64.34
12757;BME280;31601;48.042;12.240;2023-06-22T00:28:57;96259.19;;;21.60;64.43
12757;BME280;31601;48.042;12.240;2023-06-22T00:31:25;96252.47;;;21.90;64.03
12757;BME280;31601;48.042;12.240;2023-06-22T00:33:51;96262.31;;;22.17;63.45
12757;BME280;31601;48.042;12.240;2023-06-22T00:36:18;96258.09;;;22.26;63.29
12757;BME280;31601;48.042;12.240;2023-06-22T00:38:44;96242.44;;;22.40;63.00
12757;BME280;31601;48.042;12.240;2023-06-22T00:41:11;96234.88;;;22.32;63.83
12757;BME280;31601;48.042;12.240;2023-06-22T00:43:37;96238.97;;;22.45;63.91
12757;BME280;31601;48.042;12.240;2023-06-22T00:46:03;96242.72;;;22.44;64.38
12757;BME280;31601;48.042;12.240;2023-06-22T00:48:31;96243.03;;;22.58;64.06
12757;BME280;31601;48.042;12.240;2023-06-22T00:50:58;96254.06;;;22.66;64.18
12757;BME280;31601;48.042;12.240;2023-06-22T00:53:25;96247.38;;;22.69;64.15
12757;BME280;31601;48.042;12.240;2023-06-22T00:55:52;96249.50;;;22.72;63.78
12757;BME280;31601;48.042;12.240;2023-06-22T00:58:19;96256.28;;;22.90;63.16
12757;BME280;31601;48.042;12.240;2023-06-22T01:00:47;96255.25;;;22.96;63.18
12757;BME280;31601;48.042;12.240;2023-06-22T01:03:13;96250.94;;;22.95;63.16
12757;BME280;31601;48.042;12.240;2023-06-22T01:05:43;96240.75;;;22.87;63.04
12757;BME280;31601;48.042;12.240;2023-06-22T01:08:19;96246.63;;;22.79;63.13
12757;BME280;31601;48.042;12.240;2023-06-22T01:10:51;96240.19;;;22.75;63.37
12757;BME280;31601;48.042;12.240;2023-06-22T01:13:27;96241.28;;;22.89;62.89
12757;BME280;31601;48.042;12.240;2023-06-22T01:15:57;96242.47;;;23.09;62.19
12757;BME280;31601;48.042;12.240;2023-06-22T01:18:29;96234.13;;;23.05;62.31
12757;BME280;31601;48.042;12.240;2023-06-22T01:20:57;96235.41;;;22.87;62.86
12757;BME280;31601;48.042;12.240;2023-06-22T01:23:29;96223.41;;;22.89;62.81
12757;BME280;31601;48.042;12.240;2023-06-22T01:26:05;96225.22;;;22.79;62.94
12757;BME280;31601;48.042;12.240;2023-06-22T01:28:43;96213.00;;;23.03;62.40
12757;BME280;31601;48.042;12.240;2023-06-22T01:31:13;96219.06;;;22.78;63.31
12757;BME280;31601;48.042;12.240;2023-06-22T01:33:42;96227.69;;;22.38;65.02
12757;BME280;31601;48.042;12.240;2023-06-22T01:36:09;96234.44;;;22.50;64.46
12757;BME280;31601;48.042;12.240;2023-06-22T01:38:37;96232.69;;;22.71;63.76
12757;BME280;31601;48.042;12.240;2023-06-22T01:41:04;96230.06;;;22.82;63.23
12757;BME280;31601;48.042;12.240;2023-06-22T01:43:31;96223.09;;;22.86;63.35
12757;BME280;31601;48.042;12.240;2023-06-22T01:46:01;96218.56;;;22.97;62.97
12757;BME280;31601;48.042;12.240;2023-06-22T01:48:27;96220.47;;;23.01;62.61
12757;BME280;31601;48.042;12.240;2023-06-22T01:50:55;96218.56;;;22.97;62.56
12757;BME280;31601;48.042;12.240;2023-06-22T01:53:21;96208.69;;;22.97;62.70
12757;BME280;31601;48.042;12.240;2023-06-22T01:55:48;96203.31;;;22.92;62.62
12757;BME280;31601;48.042;12.240;2023-06-22T01:58:15;96202.25;;;22.88;62.69
12757;BME280;31601;48.042;12.240;2023-06-22T02:00:47;96196.34;;;22.81;63.44
12757;BME280;31601;48.042;12.240;2023-06-22T02:03:19;96198.44;;;22.74;63.67
12757;BME280;31601;48.042;12.240;2023-06-22T02:05:50;96199.22;;;22.64;64.11
12757;BME280;31601;48.042;12.240;2023-06-22T02:08:20;96191.72;;;22.66;64.79
12757;BME280;31601;48.042;12.240;2023-06-22T02:10:48;96191.72;;;22.66;65.23
12757;BME280;31601;48.042;12.240;2023-06-22T02:13:15;96187.22;;;22.66;64.95
12757;BME280;31601;48.042;12.240;2023-06-22T02:15:42;96195.13;;;22.46;65.62
12757;BME280;31601;48.042;12.240;2023-06-22T02:18:09;96185.53;;;22.55;65.38
12757;BME280;31601;48.042;12.240;2023-06-22T02:20:38;96176.94;;;22.43;65.66
12757;BME280;31601;48.042;12.240;2023-06-22T02:23:05;96169.38;;;22.29;66.50
12757;BME280;31601;48.042;12.240;2023-06-22T02:25:31;96167.22;;;22.26;66.67
12757;BME280;31601;48.042;12.240;2023-06-22T02:27:58;96173.91;;;22.29;66.67
12757;BME280;31601;48.042;12.240;2023-06-22T02:30:24;96170.88;;;22.15;67.21
12757;BME280;31601;48.042;12.240;2023-06-22T02:32:51;96171.72;;;22.21;67.58
12757;BME280;31601;48.042;12.240;2023-06-22T02:35:23;96178.94;;;22.20;67.28
12757;BME280;31601;48.042;12.240;2023-06-22T02:37:51;96175.25;;;22.26;66.89
12757;BME280;31601;48.042;12.240;2023-06-22T02:40:18;96173.72;;;22.35;66.44
12757;BME280;31601;48.042;12.240;2023-06-22T02:42:44;96180.97;;;22.45;65.99
12757;BME280;31601;48.042;12.240;2023-06-22T02:45:10;96183.38;;;22.47;65.79
12757;BME280;31601;48.042;12.240;2023-06-22T02:47:37;96184.94;;;22.43;65.58
12757;BME280;31601;48.042;12.240;2023-06-22T02:50:04;96178.50;;;22.33;65.42
12757;BME280;31601;48.042;12.240;2023-06-22T02:52:30;96184.09;;;22.32;65.42
12757;BME280;31601;48.042;12.240;2023-06-22T02:54:58;96191.28;;;22.26;65.48
12757;BME280;31601;48.042;12.240;2023-06-22T02:57:25;96194.97;;;22.20;65.33
12757;BME280;31601;48.042;12.240;2023-06-22T02:59:51;96195.50;;;22.17;65.46
12757;BME280;31601;48.042;12.240;2023-06-22T03:02:18;96197.59;;;22.10;65.70
12757;BME280;31601;48.042;12.240;2023-06-22T03:04:46;96195.34;;;21.96;66.24
12757;BME280;31601;48.042;12.240;2023-06-22T03:07:14;96196.03;;;21.76;67.32
12757;BME280;31601;48.042;12.240;2023-06-22T03:09:40;96194.31;;;21.60;67.68
12757;BME280;31601;48.042;12.240;2023-06-22T03:12:09;96194.00;;;21.56;67.74
12757;BME280;31601;48.042;12.240;2023-06-22T03:14:36;96193.97;;;21.51;68.32
12757;BME280;31601;48.042;12.240;2023-06-22T03:17:04;96194.44;;;21.48;68.14
12757;BME280;31601;48.042;12.240;2023-06-22T03:19:30;96194.44;;;21.48;67.98
12757;BME280;31601;48.042;12.240;2023-06-22T03:21:57;96201.47;;;21.54;67.98
12757;BME280;31601;48.042;12.240;2023-06-22T03:24:23;96208.19;;;21.62;67.61
12757;BME280;31601;48.042;12.240;2023-06-22T03:26:50;96211.41;;;21.64;67.50
12757;BME280;31601;48.042;12.240;2023-06-22T03:29:17;96209.88;;;21.73;66.98
12757;BME280;31601;48.042;12.240;2023-06-22T03:31:44;96212.53;;;21.73;66.80
12757;BME280;31601;48.042;12.240;2023-06-22T03:34:10;96210.97;;;21.72;66.70
12757;BME280;31601;48.042;12.240;2023-06-22T03:36:36;96217.72;;;21.53;66.91
12757;BME280;31601;48.042;12.240;2023-06-22T03:39:03;96218.44;;;21.43;67.48
12757;BME280;31601;48.042;12.240;2023-06-22T03:41:29;96219.25;;;21.49;66.81
12757;BME280;31601;48.042;12.240;2023-06-22T03:43:56;96223.56;;;21.50;66.57
12757;BME280;31601;48.042;12.240;2023-06-22T03:46:23;96216.81;;;21.42;66.21
12757;BME280;31601;48.042;12.240;2023-06-22T03:48:50;96221.03;;;21.38;66.28
12757;BME280;31601;48.042;12.240;2023-06-22T03:51:16;96214.69;;;21.44;65.81
12757;BME280;31601;48.042;12.240;2023-06-22T03:53:43;96217.97;;;21.51;65.47
12757;BME280;31601;48.042;12.240;2023-06-22T03:56:09;96218.84;;;21.57;64.98
12757;BME280;31601;48.042;12.240;2023-06-22T03:58:36;96215.41;;;21.61;64.76
12757;BME280;31601;48.042;12.240;2023-06-22T04:01:08;96216.22;;;21.62;64.29
12757;BME280;31601;48.042;12.240;2023-06-22T04:03:37;96225.72;;;21.85;63.75
12757;BME280;31601;48.042;12.240;2023-06-22T04:06:04;96221.00;;;21.92;62.75
12757;BME280;31601;48.042;12.240;2023-06-22T04:08:30;96215.06;;;21.90;62.51
12757;BME280;31601;48.042;12.240;2023-06-22T04:10:57;96213.00;;;21.97;62.08
12757;BME280;31601;48.042;12.240;2023-06-22T04:13:23;96205.25;;;21.96;62.68
12757;BME280;31601;48.042;12.240;2023-06-22T04:15:49;96203.47;;;22.12;61.56
12757;BME280;31601;48.042;12.240;2023-06-22T04:18:16;96208.59;;;22.18;61.31
12757;BME280;31601;48.042;12.240;2023-06-22T04:20:44;96210.50;;;22.28;60.84
12757;BME280;31601;48.042;12.240;2023-06-22T04:23:12;96206.56;;;22.31;60.29
12757;BME280;31601;48.042;12.240;2023-06-22T04:25:38;96208.47;;;22.35;60.53
12757;BME280;31601;48.042;12.240;2023-06-22T04:28:05;96209.06;;;22.53;59.74
12757;BME280;31601;48.042;12.240;2023-06-22T04:30:38;96212.91;;;22.78;59.11
12757;BME280;31601;48.042;12.240;2023-06-22T04:33:11;96212.63;;;22.74;59.13
12757;BME280;31601;48.042;12.240;2023-06-22T04:35:37;96205.97;;;22.82;58.97
12757;BME280;31601;48.042;12.240;2023-06-22T04:38:07;96198.50;;;22.84;58.76
12757;BME280;31601;48.042;12.240;2023-06-22T04:40:34;96195.31;;;22.97;58.41
12757;BME280;31601;48.042;12.240;2023-06-22T04:43:00;96198.06;;;23.13;57.98
12757;BME280;31601;48.042;12.240;2023-06-22T04:45:28;96208.00;;;23.38;57.14
12757;BME280;31601;48.042;12.240;2023-06-22T04:47:55;96206.94;;;23.39;56.59
12757;BME280;31601;48.042;12.240;2023-06-22T04:50:21;96211.47;;;23.54;56.44
12757;BME280;31601;48.042;12.240;2023-06-22T04:52:48;96206.41;;;23.47;56.61
12757;BME280;31601;48.042;12.240;2023-06-22T04:55:16;96209.09;;;23.63;55.89
12757;BME280;31601;48.042;12.240;2023-06-22T04:57:45;96199.47;;;23.98;54.98
12757;BME280;31601;48.042;12.240;2023-06-22T05:00:14;96200.22;;;24.24;54.27
12757;BME280;31601;48.042;12.240;2023-06-22T05:02:43;96199.66;;;24.32;54.52
12757;BME280;31601;48.042;12.240;2023-06-22T05:05:10;96199.84;;;24.51;54.03
12757;BME280;31601;48.042;12.240;2023-06-22T05:07:39;96198.22;;;24.60;53.82
12757;BME280;31601;48.042;12.240;2023-06-22T05:10:08;96200.56;;;24.82;53.80
12757;BME280;31601;48.042;12.240;2023-06-22T05:12:36;96200.44;;;25.03;53.13
12757;BME280;31601;48.042;12.240;2023-06-22T05:15:03;96204.59;;;24.80;53.82
12757;BME280;31601;48.042;12.240;2023-06-22T05:17:29;96206.28;;;24.55;55.02
12757;BME280;31601;48.042;12.240;2023-06-22T05:19:56;96202.66;;;24.91;54.43
12757;BME280;31601;48.042;12.240;2023-06-22T05:22:22;96189.59;;;25.29;53.53
12757;BME280;31601;48.042;12.240;2023-06-22T05:24:49;96190.13;;;24.81;54.99
12757;BME280;31601;48.042;12.240;2023-06-22T05:27:15;96196.22;;;24.92;54.60
12757;BME280;31601;48.042;12.240;2023-06-22T05:29:43;96192.75;;;24.86;55.41
12757;BME280;31601;48.042;12.240;2023-06-22T05:32:10;96186.34;;;24.82;55.41
12757;BME280;31601;48.042;12.240;2023-06-22T05:34:36;96187.03;;;25.03;54.46
12757;BME280;31601;48.042;12.240;2023-06-22T05:37:03;96202.94;;;24.89;54.81
12757;BME280;31601;48.042;12.240;2023-06-22T05:39:30;96192.88;;;25.15;54.15
12757;BME280;31601;48.042;12.240;2023-06-22T05:44:22;96183.69;;;25.22;53.23
12757;BME280;31601;48.042;12.240;2023-06-22T05:46:50;96182.97;;;25.11;53.35
12757;BME280;31601;48.042;12.240;2023-06-22T05:49:16;96167.53;;;25.66;53.18
12757;BME280;31601;48.042;12.240;2023-06-22T05:51:43;96165.66;;;25.96;51.76
12757;BME280;31601;48.042;12.240;2023-06-22T05:54:09;96166.94;;;26.04;51.32
12757;BME280;31601;48.042;12.240;2023-06-22T05:56:38;96162.94;;;26.25;51.43
12757;BME280;31601;48.042;12.240;2023-06-22T05:59:05;96174.75;;;26.30;50.15
12757;BME280;31601;48.042;12.240;2023-06-22T06:01:31;96176.38;;;26.31;51.05
12757;BME280;31601;48.042;12.240;2023-06-22T06:04:02;96182.34;;;26.47;50.37
12757;BME280;31601;48.042;12.240;2023-06-22T06:06:29;96177.59;;;26.62;50.49
12757;BME280;31601;48.042;12.240;2023-06-22T06:08:55;96178.72;;;26.56;49.93
12757;BME280;31601;48.042;12.240;2023-06-22T06:11:22;96174.63;;;26.40;50.30
12757;BME280;31601;48.042;12.240;2023-06-22T06:13:49;96172.31;;;26.04;51.23
12757;BME280;31601;48.042;12.240;2023-06-22T06:16:15;96173.34;;;26.56;50.59
12757;BME280;31601;48.042;12.240;2023-06-22T06:18:42;96180.09;;;26.54;49.66
12757;BME280;31601;48.042;12.240;2023-06-22T06:21:09;96177.16;;;26.31;50.42
12757;BME280;31601;48.042;12.240;2023-06-22T06:23:36;96173.84;;;26.58;49.73
12757;BME280;31601;48.042;12.240;2023-06-22T06:26:02;96176.63;;;26.77;49.90
12757;BME280;31601;48.042;12.240;2023-06-22T06:28:32;96173.72;;;26.93;49.30
12757;BME280;31601;48.042;12.240;2023-06-22T06:30:58;96173.69;;;26.74;49.61
12757;BME280;31601;48.042;12.240;2023-06-22T06:33:25;96173.56;;;27.03;49.01
12757;BME280;31601;48.042;12.240;2023-06-22T06:35:51;96166.31;;;27.42;48.71
12757;BME280;31601;48.042;12.240;2023-06-22T06:38:19;96165.72;;;27.07;49.22
12757;BME280;31601;48.042;12.240;2023-06-22T06:40:45;96160.19;;;27.17;49.44
12757;BME280;31601;48.042;12.240;2023-06-22T06:43:14;96158.09;;;27.33;48.35
12757;BME280;31601;48.042;12.240;2023-06-22T06:45:40;96156.19;;;27.66;47.93
12757;BME280;31601;48.042;12.240;2023-06-22T06:48:07;96160.84;;;27.94;46.92
12757;BME280;31601;48.042;12.240;2023-06-22T06:50:34;96154.13;;;28.24;46.46
12757;BME280;31601;48.042;12.240;2023-06-22T06:53:00;96145.81;;;28.20;45.96
12757;BME280;31601;48.042;12.240;2023-06-22T06:55:28;96155.34;;;28.46;45.70
12757;BME280;31601;48.042;12.240;2023-06-22T06:57:58;96150.91;;;28.78;45.21
12757;BME280;31601;48.042;12.240;2023-06-22T07:00:25;96145.19;;;28.93;44.67
12757;BME280;31601;48.042;12.240;2023-06-22T07:02:52;96155.91;;;29.21;43.86
12757;BME280;31601;48.042;12.240;2023-06-22T07:05:19;96156.63;;;29.13;43.79
12757;BME280;31601;48.042;12.240;2023-06-22T07:07:45;96156.44;;;29.09;43.56
12757;BME280;31601;48.042;12.240;2023-06-22T07:10:11;96153.97;;;29.35;43.66
12757;BME280;31601;48.042;12.240;2023-06-22T07:12:39;96150.53;;;29.43;43.56
12757;BME280;31601;48.042;12.240;2023-06-22T07:15:07;96157.25;;;29.09;43.38
12757;BME280;31601;48.042;12.240;2023-06-22T07:17:34;96130.38;;;29.27;43.55
12757;BME280;31601;48.042;12.240;2023-06-22T07:20:01;96137.53;;;29.09;43.66
12757;BME280;31601;48.042;12.240;2023-06-22T07:22:33;96129.84;;;29.39;43.31
12757;BME280;31601;48.042;12.240;2023-06-22T07:25:00;96128.00;;;29.25;43.33
12757;BME280;31601;48.042;12.240;2023-06-22T07:27:26;96127.31;;;29.42;42.93
12757;BME280;31601;48.042;12.240;2023-06-22T07:29:54;96134.44;;;29.84;42.06
12757;BME280;31601;48.042;12.240;2023-06-22T07:32:21;96125.59;;;29.46;42.19
12757;BME280;31601;48.042;12.240;2023-06-22T07:34:47;96136.88;;;29.94;42.14
12757;BME280;31601;48.042;12.240;2023-06-22T07:37:14;96132.78;;;30.05;41.75
12757;BME280;31601;48.042;12.240;2023-06-22T07:39:40;96131.41;;;30.25;40.83
12757;BME280;31601;48.042;12.240;2023-06-22T07:42:07;96135.69;;;30.17;41.32
12757;BME280;31601;48.042;12.240;2023-06-22T07:44:34;96134.09;;;30.65;40.63
12757;BME280;31601;48.042;12.240;2023-06-22T07:47:02;96132.59;;;30.99;40.16
12757;BME280;31601;48.042;12.240;2023-06-22T07:49:29;96130.91;;;30.72;40.31
12757;BME280;31601;48.042;12.240;2023-06-22T07:51:55;96123.06;;;30.44;40.42
12757;BME280;31601;48.042;12.240;2023-06-22T07:54:21;96127.41;;;30.63;40.61
12757;BME280;31601;48.042;12.240;2023-06-22T07:56:48;96131.38;;;30.57;40.39
12757;BME280;31601;48.042;12.240;2023-06-22T07:59:14;96130.41;;;30.61;39.62
12757;BME280;31601;48.042;12.240;2023-06-22T08:01:41;96130.44;;;30.52;40.47
12757;BME280;31601;48.042;12.240;2023-06-22T08:04:09;96127.47;;;30.98;39.83
12757;BME280;31601;48.042;12.240;2023-06-22T08:06:36;96119.50;;;31.01;39.11
12757;BME280;31601;48.042;12.240;2023-06-22T08:09:02;96115.91;;;30.48;40.44
12757;BME280;31601;48.042;12.240;2023-06-22T08:11:29;96117.53;;;30.18;41.19
12757;BME280;31601;48.042;12.240;2023-06-22T08:13:55;96121.16;;;30.53;40.72
12757;BME280;31601;48.042;12.240;2023-06-22T08:16:23;96115.34;;;30.86;38.63
12757;BME280;31601;48.042;12.240;2023-06-22T08:18:50;96112.97;;;31.29;38.77
12757;BME280;31601;48.042;12.240;2023-06-22T08:21:18;96113.22;;;31.71;37.59
12757;BME280;31601;48.042;12.240;2023-06-22T08:23:44;96114.56;;;31.94;38.44
12757;BME280;31601;48.042;12.240;2023-06-22T08:26:10;96116.63;;;32.15;37.09
12757;BME280;31601;48.042;12.240;2023-06-22T08:28:37;96117.19;;;32.29;36.97
12757;BME280;31601;48.042;12.240;2023-06-22T08:31:03;96120.28;;;32.49;36.26
12757;BME280;31601;48.042;12.240;2023-06-22T08:33:30;96119.31;;;32.45;37.15
12757;BME280;31601;48.042;12.240;2023-06-22T08:35:58;96117.94;;;31.91;36.45
12757;BME280;31601;48.042;12.240;2023-06-22T08:38:26;96118.13;;;31.77;37.09
12757;BME280;31601;48.042;12.240;2023-06-22T08:40:52;96116.56;;;31.76;37.72
12757;BME280;31601;48.042;12.240;2023-06-22T08:43:19;96115.41;;;31.86;36.96
12757;BME280;31601;48.042;12.240;2023-06-22T08:45:45;96117.28;;;31.94;37.42
12757;BME280;31601;48.042;12.240;2023-06-22T08:48:11;96115.16;;;31.62;38.51
12757;BME280;31601;48.042;12.240;2023-06-22T08:50:38;96108.81;;;31.57;38.85
12757;BME280;31601;48.042;12.240;2023-06-22T08:53:05;96110.56;;;32.01;37.98
12757;BME280;31601;48.042;12.240;2023-06-22T08:55:33;96102.75;;;31.61;37.72
12757;BME280;31601;48.042;12.240;2023-06-22T08:58:00;96097.47;;;31.55;37.28
12757;BME280;31601;48.042;12.240;2023-06-22T09:00:26;96099.66;;;31.71;37.46
12757;BME280;31601;48.042;12.240;2023-06-22T09:02:54;96102.97;;;31.85;37.35
12757;BME280;31601;48.042;12.240;2023-06-22T09:05:23;96094.75;;;32.11;36.88
12757;BME280;31601;48.042;12.240;2023-06-22T09:07:50;96098.91;;;32.39;35.89
12757;BME280;31601;48.042;12.240;2023-06-22T09:10:20;96099.56;;;32.36;35.92
12757;BME280;31601;48.042;12.240;2023-06-22T09:12:47;96095.47;;;32.29;36.54
12757;BME280;31601;48.042;12.240;2023-06-22T09:15:14;96097.53;;;33.05;35.87
12757;BME280;31601;48.042;12.240;2023-06-22T09:17:40;96099.38;;;32.92;35.57
12757;BME280;31601;48.042;12.240;2023-06-22T09:20:08;96096.78;;;33.16;35.39
12757;BME280;31601;48.042;12.240;2023-06-22T09:22:36;96092.22;;;32.87;36.29
12757;BME280;31601;48.042;12.240;2023-06-22T09:25:03;96093.94;;;32.92;36.35
12757;BME280;31601;48.042;12.240;2023-06-22T09:27:29;96080.19;;;32.97;35.72
12757;BME280;31601;48.042;12.240;2023-06-22T09:29:57;96085.91;;;33.16;36.18
12757;BME280;31601;48.042;12.240;2023-06-22T09:32:24;96094.50;;;32.85;36.73
12757;BME280;31601;48.042;12.240;2023-06-22T09:34:51;96085.59;;;32.76;36.40
12757;BME280;31601;48.042;12.240;2023-06-22T09:37:18;96084.25;;;33.58;35.69
12757;BME280;31601;48.042;12.240;2023-06-22T09:39:44;96081.50;;;33.79;35.09
12757;BME280;31601;48.042;12.240;2023-06-22T09:42:11;96076.47;;;33.68;33.62
12757;BME280;31601;48.042;12.240;2023-06-22T09:44:38;96077.06;;;32.65;36.64
12757;BME280;31601;48.042;12.240;2023-06-22T09:47:07;96078.16;;;33.27;36.08
12757;BME280;31601;48.042;12.240;2023-06-22T09:49:33;96066.53;;;33.39;35.77
12757;BME280;31601;48.042;12.240;2023-06-22T09:51:59;96061.78;;;34.06;35.27
12757;BME280;31601;48.042;12.240;2023-06-22T09:54:26;96062.22;;;34.08;35.03
12757;BME280;31601;48.042;12.240;2023-06-22T09:56:52;96065.56;;;34.27;33.39
12757;BME280;31601;48.042;12.240;2023-06-22T09:59:19;96058.19;;;34.27;33.49
12757;BME280;31601;48.042;12.240;2023-06-22T10:01:45;96050.44;;;34.41;32.66
12757;BME280;31601;48.042;12.240;2023-06-22T10:04:13;96052.13;;;34.21;32.73
12757;BME280;31601;48.042;12.240;2023-06-22T10:06:39;96055.78;;;34.01;33.08
12757;BME280;31601;48.042;12.240;2023-06-22T10:09:06;96052.03;;;34.30;32.60
12757;BME280;31601;48.042;12.240;2023-06-22T10:11:33;96047.28;;;34.27;32.38
12757;BME280;31601;48.042;12.240;2023-06-22T10:14:00;96046.34;;;34.48;32.92
12757;BME280;31601;48.042;12.240;2023-06-22T10:16:30;96048.69;;;34.61;32.06
12757;BME280;31601;48.042;12.240;2023-06-22T10:18:57;96051.34;;;34.33;31.58
12757;BME280;31601;48.042;12.240;2023-06-22T10:21:25;96053.13;;;34.54;32.39
12757;BME280;31601;48.042;12.240;2023-06-22T10:23:52;96048.84;;;34.53;32.53
12757;BME280;31601;48.042;12.240;2023-06-22T10:26:18;96046.59;;;34.83;32.40
12757;BME280;31601;48.042;12.240;2023-06-22T10:28:45;96048.03;;;35.05;32.22
12757;BME280;31601;48.042;12.240;2023-06-22T10:31:11;96040.47;;;34.86;33.05
12757;BME280;31601;48.042;12.240;2023-06-22T10:33:38;96036.25;;;35.17;32.53
12757;BME280;31601;48.042;12.240;2023-06-22T10:36:06;96033.88;;;35.15;32.26
12757;BME280;31601;48.042;12.240;2023-06-22T10:38:34;96026.28;;;35.37;32.40
12757;BME280;31601;48.042;12.240;2023-06-22T10:41:00;96019.53;;;35.19;31.09
12757;BME280;31601;48.042;12.240;2023-06-22T10:43:27;96019.53;;;35.19;30.38
12757;BME280;31601;48.042;12.240;2023-06-22T10:45:54;96020.31;;;35.31;30.71
12757;BME280;31601;48.042;12.240;2023-06-22T10:48:20;96016.38;;;35.61;30.95
12757;BME280;31601;48.042;12.240;2023-06-22T10:50:46;96011.00;;;35.64;30.60
12757;BME280;31601;48.042;12.240;2023-06-22T10:53:13;96005.91;;;35.95;30.19
12757;BME280;31601;48.042;12.240;2023-06-22T10:55:41;96005.91;;;35.63;31.40
12757;BME280;31601;48.042;12.240;2023-06-22T10:58:07;96002.53;;;35.70;31.40
12757;BME280;31601;48.042;12.240;2023-06-22T11:00:34;95999.00;;;35.37;30.31
12757;BME280;31601;48.042;12.240;2023-06-22T11:03:00;95992.16;;;35.43;30.42
12757;BME280;31601;48.042;12.240;2023-06-22T11:05:26;95995.94;;;35.87;30.86
12757;BME280;31601;48.042;12.240;2023-06-22T11:07:53;95994.41;;;36.05;30.59
12757;BME280;31601;48.042;12.240;2023-06-22T11:10:19;95995.13;;;36.02;30.61
12757;BME280;31601;48.042;12.240;2023-06-22T11:12:47;95990.84;;;36.01;29.63
12757;BME280;31601;48.042;12.240;2023-06-22T11:15:14;95997.34;;;35.04;30.69
12757;BME280;31601;48.042;12.240;2023-06-22T11:17:40;95987.63;;;34.63;31.22
12757;BME280;31601;48.042;12.240;2023-06-22T11:20:07;95988.16;;;34.81;29.92
12757;BME280;31601;48.042;12.240;2023-06-22T11:22:36;95970.72;;;35.13;30.15
12757;BME280;31601;48.042;12.240;2023-06-22T11:25:03;95972.13;;;35.07;30.43
12757;BME280;31601;48.042;12.240;2023-06-22T11:27:29;95968.66;;;35.39;30.71
12757;BME280;31601;48.042;12.240;2023-06-22T11:29:57;95952.66;;;35.53;30.06
12757;BME280;31601;48.042;12.240;2023-06-22T11:32:24;95961.63;;;35.85;29.80
12757;BME280;31601;48.042;12.240;2023-06-22T11:34:50;95955.00;;;35.87;29.80
12757;BME280;31601;48.042;12.240;2023-06-22T11:37:16;95957.38;;;35.24;29.72
12757;BME280;31601;48.042;12.240;2023-06-22T11:39:43;95961.88;;;35.80;29.26
12757;BME280;31601;48.042;12.240;2023-06-22T11:42:10;95954.06;;;35.63;29.28
12757;BME280;31601;48.042;12.240;2023-06-22T11:44:36;95943.84;;;36.11;29.32
12757;BME280;31601;48.042;12.240;2023-06-22T11:47:05;95944.91;;;35.55;29.02
12757;BME280;31601;48.042;12.240;2023-06-22T11:49:31;95935.03;;;36.18;29.00
12757;BME280;31601;48.042;12.240;2023-06-22T11:51:58;95935.81;;;36.18;28.11
12757;BME280;31601;48.042;12.240;2023-06-22T11:54:24;95941.81;;;36.44;27.57
12757;BME280;31601;48.042;12.240;2023-06-22T11:56:50;95940.94;;;36.20;27.81
12757;BME280;31601;48.042;12.240;2023-06-22T11:59:17;95938.25;;;36.24;27.92
12757;BME280;31601;48.042;12.240;2023-06-22T12:01:43;95940.81;;;36.71;27.73
12757;BME280;31601;48.042;12.240;2023-06-22T12:04:11;95927.31;;;36.40;27.18
12757;BME280;31601;48.042;12.240;2023-06-22T12:06:38;95927.81;;;36.45;27.39
12757;BME280;31601;48.042;12.240;2023-06-22T12:09:07;95924.16;;;36.77;26.76
12757;BME280;31601;48.042;12.240;2023-06-22T12:11:33;95929.91;;;36.52;27.04
12757;BME280;31601;48.042;12.240;2023-06-22T12:13:59;95921.00;;;36.55;26.72
12757;BME280;31601;48.042;12.240;2023-06-22T12:16:27;95911.72;;;37.02;26.67
12757;BME280;31601;48.042;12.240;2023-06-22T12:18:54;95921.31;;;36.92;27.33
12757;BME280;31601;48.042;12.240;2023-06-22T12:21:21;95924.94;;;36.58;26.54
12757;BME280;31601;48.042;12.240;2023-06-22T12:23:48;95906.78;;;37.12;26.39
12757;BME280;31601;48.042;12.240;2023-06-22T12:26:14;95911.78;;;36.44;27.71
12757;BME280;31601;48.042;12.240;2023-06-22T12:28:41;95902.97;;;36.93;26.68
12757;BME280;31601;48.042;12.240;2023-06-22T12:31:07;95890.94;;;36.98;26.91
12757;BME280;31601;48.042;12.240;2023-06-22T12:33:33;95899.56;;;36.57;27.82
12757;BME280;31601;48.042;12.240;2023-06-22T12:36:00;95896.31;;;36.51;27.39
12757;BME280;31601;48.042;12.240;2023-06-22T12:38:28;95897.63;;;36.38;27.66
12757;BME280;31601;48.042;12.240;2023-06-22T12:40:54;95897.88;;;36.72;27.37
12757;BME280;31601;48.042;12.240;2023-06-22T12:43:20;95901.09;;;36.19;27.24
12757;BME280;31601;48.042;12.240;2023-06-22T12:45:47;95897.19;;;36.55;26.84
12757;BME280;31601;48.042;12.240;2023-06-22T12:48:13;95890.28;;;36.62;25.73
12757;BME280;31601;48.042;12.240;2023-06-22T12:50:40;95879.63;;;36.76;25.98
12757;BME280;31601;48.042;12.240;2023-06-22T12:53:06;95876.88;;;36.76;26.66